createdAt,value
2019-02-16T00:00:38.314Z,10.67
2019-02-16T00:03:07.508Z,9.53
2019-02-16T00:05:36.353Z,9.50
2019-02-16T00:08:05.278Z,10.87
2019-02-16T00:10:34.173Z,10.47
2019-02-16T00:13:03.005Z,13.03
2019-02-16T00:15:31.848Z,11.23
2019-02-16T00:18:00.736Z,9.47
2019-02-16T00:20:29.774Z,13.80
2019-02-16T00:22:58.612Z,10.63
2019-02-16T00:25:27.460Z,12.10
2019-02-16T00:27:56.316Z,11.67
2019-02-16T00:30:25.344Z,11.37
2019-02-16T00:32:55.771Z,9.40
2019-02-16T00:35:24.951Z,10.30
2019-02-16T00:37:53.758Z,10.70
2019-02-16T00:40:22.779Z,11.23
2019-02-16T00:42:51.634Z,9.33
2019-02-16T00:45:20.488Z,9.77
2019-02-16T00:47:49.343Z,8.83
2019-02-16T00:50:18.536Z,9.70
2019-02-16T00:52:47.500Z,11.87
2019-02-16T00:55:16.382Z,9.73
2019-02-16T00:57:45.207Z,10.60
2019-02-16T01:00:14.523Z,9.13
2019-02-16T01:05:19.202Z,13.70
2019-02-16T01:07:48.094Z,9.47
2019-02-16T01:10:18.982Z,10.10
2019-02-16T01:12:47.849Z,12.20
2019-02-16T01:15:16.684Z,10.53
2019-02-16T01:17:45.465Z,9.53
2019-02-16T01:20:14.491Z,15.75
2019-02-16T01:22:43.325Z,12.60
2019-02-16T01:25:12.336Z,10.80
2019-02-16T01:27:41.196Z,12.57
2019-02-16T01:30:11.126Z,12.10
2019-02-16T01:32:40.126Z,13.33
2019-02-16T01:35:09.867Z,9.68
2019-02-16T01:37:38.879Z,12.60
2019-02-16T01:40:10.604Z,12.40
2019-02-16T01:42:39.518Z,13.93
2019-02-16T01:45:10.036Z,12.10
2019-02-16T01:47:38.799Z,11.33
2019-02-16T01:50:09.528Z,11.53
2019-02-16T01:52:38.404Z,15.00
2019-02-16T01:55:09.356Z,11.03
2019-02-16T01:57:38.333Z,9.50
2019-02-16T02:00:10.678Z,10.57
2019-02-16T02:02:39.687Z,9.77
2019-02-16T02:05:09.142Z,11.70
2019-02-16T02:07:38.695Z,8.87
2019-02-16T02:10:08.929Z,10.57
2019-02-16T02:12:37.838Z,10.97
2019-02-16T02:15:07.489Z,11.43
2019-02-16T02:17:36.421Z,11.80
2019-02-16T02:20:05.872Z,9.17
2019-02-16T02:22:34.960Z,10.50
2019-02-16T02:25:04.822Z,10.17
2019-02-16T02:27:33.723Z,9.17
2019-02-16T02:30:02.792Z,14.13
2019-02-16T02:32:31.735Z,10.57
2019-02-16T02:35:00.620Z,11.83
2019-02-16T02:37:29.522Z,12.00
2019-02-16T02:39:58.582Z,11.17
2019-02-16T02:42:27.438Z,13.93
2019-02-16T02:44:56.409Z,9.97
2019-02-16T02:47:25.363Z,13.27
2019-02-16T02:49:54.362Z,10.13
2019-02-16T02:52:23.244Z,10.97
2019-02-16T02:54:52.119Z,14.03
2019-02-16T02:57:21.028Z,15.23
2019-02-16T02:59:50.159Z,11.07
2019-02-16T03:02:19.232Z,11.70
2019-02-16T03:04:48.131Z,12.17
2019-02-16T03:07:17.189Z,10.17
2019-02-16T03:09:46.289Z,13.30
2019-02-16T03:12:15.292Z,10.50
2019-02-16T03:14:44.215Z,10.77
2019-02-16T03:17:13.168Z,12.27
2019-02-16T03:19:42.245Z,12.20
2019-02-16T03:22:11.202Z,8.60
2019-02-16T03:24:40.614Z,11.93
2019-02-16T03:27:31.592Z,12.50
2019-02-16T03:30:33.698Z,11.43
2019-02-16T03:33:36.091Z,11.93
2019-02-16T03:36:33.639Z,15.13
2019-02-16T03:39:12.147Z,12.93
2019-02-16T03:41:41.106Z,13.07
2019-02-16T03:44:10.064Z,11.73
2019-02-16T03:46:38.971Z,11.00
2019-02-16T03:49:09.103Z,11.17
2019-02-16T03:51:37.954Z,9.97
2019-02-16T03:54:06.890Z,15.10
2019-02-16T03:56:35.799Z,12.30
2019-02-16T03:59:04.852Z,10.97
2019-02-16T04:01:33.777Z,10.63
2019-02-16T04:04:02.807Z,10.87
2019-02-16T04:06:31.822Z,13.07
2019-02-16T04:09:00.762Z,11.90
2019-02-16T04:11:29.721Z,11.10
2019-02-16T04:13:58.709Z,13.20
2019-02-16T04:16:27.690Z,13.77
2019-02-16T04:18:56.702Z,10.73
2019-02-16T04:21:25.565Z,11.20
2019-02-16T04:23:54.451Z,10.13
2019-02-16T04:26:23.494Z,11.80
2019-02-16T04:28:52.533Z,11.77
2019-02-16T04:31:21.459Z,10.37
2019-02-16T04:33:50.323Z,10.97
2019-02-16T04:36:19.139Z,12.93
2019-02-16T04:38:48.602Z,12.43
2019-02-16T04:41:17.547Z,11.73
2019-02-16T04:43:46.407Z,13.47
2019-02-16T04:46:15.387Z,13.40
2019-02-16T04:48:44.393Z,12.87
2019-02-16T04:51:13.252Z,9.40
2019-02-16T04:53:42.153Z,11.73
2019-02-16T04:56:11.041Z,10.80
2019-02-16T04:58:39.971Z,12.80
2019-02-16T05:01:08.934Z,11.00
2019-02-16T05:03:37.740Z,14.03
2019-02-16T05:06:06.685Z,10.80
2019-02-16T05:08:35.691Z,15.10
2019-02-16T05:11:04.501Z,14.30
2019-02-16T05:13:33.314Z,11.57
2019-02-16T05:16:02.209Z,13.15
2019-02-16T05:18:31.199Z,11.97
2019-02-16T05:21:00.065Z,10.97
2019-02-16T05:23:28.874Z,13.80
2019-02-16T05:25:57.890Z,14.60
2019-02-16T05:28:26.881Z,12.43
2019-02-16T05:30:55.733Z,16.13
2019-02-16T05:33:24.527Z,10.77
2019-02-16T05:38:36.506Z,11.97
2019-02-16T05:41:05.531Z,13.70
2019-02-16T05:43:34.330Z,13.70
2019-02-16T05:46:03.287Z,13.47
2019-02-16T05:48:32.412Z,11.13
2019-02-16T05:51:01.298Z,12.23
2019-02-16T05:53:30.160Z,12.00
2019-02-16T05:55:59.153Z,10.83
2019-02-16T05:58:28.083Z,12.80
2019-02-16T06:00:56.947Z,12.97
2019-02-16T06:03:25.749Z,12.43
2019-02-16T06:05:54.733Z,12.07
2019-02-16T06:08:23.621Z,13.27
2019-02-16T06:10:52.588Z,12.83
2019-02-16T06:13:21.417Z,11.87
2019-02-16T06:15:50.306Z,15.10
2019-02-16T06:18:19.410Z,13.93
2019-02-16T06:20:48.304Z,13.47
2019-02-16T06:23:17.169Z,11.50
2019-02-16T06:25:46.044Z,14.65
2019-02-16T06:28:14.981Z,11.90
2019-02-16T06:30:43.871Z,13.37
2019-02-16T06:33:12.698Z,13.20
2019-02-16T06:35:53.688Z,13.23
2019-02-16T06:38:22.684Z,13.10
2019-02-16T06:40:51.518Z,13.13
2019-02-16T06:43:20.396Z,11.90
2019-02-16T06:45:49.332Z,12.17
2019-02-16T06:48:18.395Z,12.40
2019-02-16T06:50:47.242Z,13.63
2019-02-16T06:53:16.015Z,13.67
2019-02-16T06:55:49.790Z,11.87
2019-02-16T06:58:18.674Z,13.07
2019-02-16T07:00:47.612Z,13.27
2019-02-16T07:03:16.455Z,15.73
2019-02-16T07:05:45.382Z,13.73
2019-02-16T07:08:14.393Z,15.20
2019-02-16T07:10:43.266Z,12.93
2019-02-16T07:13:12.177Z,18.30
2019-02-16T07:15:41.059Z,15.47
2019-02-16T07:18:31.827Z,13.80
2019-02-16T07:21:00.607Z,12.67
2019-02-16T07:23:29.404Z,14.23
2019-02-16T07:25:58.161Z,13.60
2019-02-16T07:28:27.202Z,15.90
2019-02-16T07:30:56.024Z,20.53
2019-02-16T07:33:24.798Z,12.30
2019-02-16T07:35:53.709Z,15.67
2019-02-16T07:38:22.536Z,15.23
2019-02-16T07:40:51.326Z,12.40
2019-02-16T07:43:39.215Z,12.37
2019-02-16T07:46:17.564Z,15.43
2019-02-16T07:48:52.794Z,15.93
2019-02-16T07:51:48.671Z,13.57
2019-02-16T07:54:23.578Z,16.93
2019-02-16T07:57:06.036Z,14.40
2019-02-16T07:59:39.479Z,15.13
2019-02-16T08:02:21.777Z,14.27
2019-02-16T08:05:05.002Z,14.70
2019-02-16T08:07:52.730Z,14.40
2019-02-16T08:13:11.495Z,16.90
2019-02-16T08:15:52.070Z,14.07
2019-02-16T08:18:29.968Z,16.00
2019-02-16T08:21:23.889Z,17.53
2019-02-16T08:24:10.697Z,14.20
2019-02-16T08:26:58.568Z,17.30
2019-02-16T08:29:50.446Z,14.37
2019-02-16T08:32:34.361Z,16.67
2019-02-16T08:35:11.184Z,17.17
2019-02-16T08:38:02.116Z,18.70
2019-02-16T08:40:52.859Z,16.25
2019-02-16T08:43:28.713Z,14.50
2019-02-16T08:46:05.067Z,17.83
2019-02-16T08:48:58.995Z,14.67
2019-02-16T08:51:55.812Z,15.73
2019-02-16T08:54:46.805Z,16.33
2019-02-16T08:57:36.392Z,17.30
2019-02-16T09:00:16.498Z,17.37
2019-02-16T09:02:54.183Z,18.63
2019-02-16T09:05:33.115Z,18.70
2019-02-16T09:08:18.113Z,19.47
2019-02-16T09:11:15.003Z,18.92
2019-02-16T09:14:09.142Z,19.33
2019-02-16T09:16:50.920Z,19.97
2019-02-16T09:19:37.334Z,18.47
2019-02-16T09:22:40.443Z,18.00
2019-02-16T09:25:18.633Z,20.77
2019-02-16T09:28:03.676Z,19.50
2019-02-16T09:30:51.043Z,21.83
2019-02-16T09:33:45.900Z,20.40
2019-02-16T09:36:32.284Z,20.73
2019-02-16T09:39:12.881Z,23.27
2019-02-16T09:42:00.776Z,18.48
2019-02-16T09:44:55.106Z,18.83
2019-02-16T09:47:35.558Z,21.30
2019-02-16T09:50:13.855Z,23.57
2019-02-16T09:53:00.348Z,19.20
2019-02-16T09:55:50.478Z,20.33
2019-02-16T09:58:43.216Z,19.00
2019-02-16T10:01:33.999Z,20.13
2019-02-16T10:04:07.931Z,18.70
2019-02-16T10:06:51.148Z,20.03
2019-02-16T10:09:29.857Z,18.77
2019-02-16T10:12:11.565Z,18.33
2019-02-16T10:15:02.373Z,17.27
2019-02-16T10:17:41.384Z,17.57
2019-02-16T10:20:26.263Z,19.43
2019-02-16T10:23:08.289Z,17.43
2019-02-16T10:25:56.174Z,20.60
2019-02-16T10:28:37.240Z,20.27
2019-02-16T10:31:43.427Z,21.93
2019-02-16T10:34:37.346Z,19.33
2019-02-16T10:37:27.600Z,20.43
2019-02-16T10:40:21.642Z,17.00
2019-02-16T10:43:01.329Z,19.23
2019-02-16T10:45:47.851Z,22.07
2019-02-16T10:48:34.431Z,18.13
2019-02-16T10:51:34.216Z,19.03
2019-02-16T10:54:08.489Z,17.80
2019-02-16T10:56:57.220Z,18.77
2019-02-16T10:59:48.851Z,17.77
2019-02-16T11:02:27.543Z,21.90
2019-02-16T11:05:21.595Z,19.43
2019-02-16T11:08:01.277Z,20.53
2019-02-16T11:10:49.779Z,18.63
2019-02-16T11:13:35.948Z,19.17
2019-02-16T11:16:15.580Z,18.47
2019-02-16T11:19:02.891Z,18.77
2019-02-16T11:21:50.751Z,22.37
2019-02-16T11:24:39.272Z,17.90
2019-02-16T11:27:14.573Z,23.00
2019-02-16T11:29:49.634Z,18.47
2019-02-16T11:32:46.638Z,21.67
2019-02-16T11:35:21.425Z,19.77
2019-02-16T11:38:12.414Z,18.63
2019-02-16T11:41:00.302Z,22.27
2019-02-16T11:43:45.133Z,20.17
2019-02-16T11:46:35.872Z,18.00
2019-02-16T11:49:23.986Z,21.47
2019-02-16T11:52:10.296Z,20.57
2019-02-16T11:58:11.290Z,21.17
2019-02-16T12:00:57.576Z,18.20
2019-02-16T12:03:44.309Z,21.03
2019-02-16T12:06:27.165Z,24.13
2019-02-16T12:09:07.775Z,20.47
2019-02-16T12:12:04.643Z,21.33
2019-02-16T12:15:07.703Z,19.63
2019-02-16T12:18:04.758Z,21.43
2019-02-16T12:20:52.660Z,17.70
2019-02-16T12:26:25.658Z,23.50
2019-02-16T12:29:11.232Z,20.80
2019-02-16T12:31:57.993Z,19.43
2019-02-16T12:34:47.903Z,20.03
2019-02-16T12:37:31.563Z,25.83
2019-02-16T12:40:22.736Z,21.30
2019-02-16T12:43:19.660Z,23.40
2019-02-16T12:46:10.105Z,20.23
2019-02-16T12:48:57.541Z,22.27
2019-02-16T12:51:51.373Z,19.03
2019-02-16T12:54:44.378Z,19.17
2019-02-16T12:57:25.948Z,19.87
2019-02-16T13:00:13.873Z,19.67
2019-02-16T13:03:04.624Z,17.83
2019-02-16T13:05:50.913Z,22.63
2019-02-16T13:08:27.224Z,19.70
2019-02-16T13:11:15.115Z,20.87
2019-02-16T13:14:05.808Z,19.83
2019-02-16T13:16:42.682Z,17.83
2019-02-16T13:19:23.921Z,19.93
2019-02-16T13:21:57.830Z,22.20
2019-02-16T13:24:42.396Z,22.93
2019-02-16T13:27:29.146Z,20.53
2019-02-16T13:30:03.328Z,20.17
2019-02-16T13:32:42.381Z,22.43
2019-02-16T13:35:21.784Z,24.57
2019-02-16T13:38:05.775Z,20.20
2019-02-16T13:40:56.442Z,22.60
2019-02-16T13:43:47.407Z,19.70
2019-02-16T13:46:22.379Z,22.03
2019-02-16T13:48:57.250Z,22.50
2019-02-16T13:51:47.413Z,21.77
2019-02-16T13:54:44.464Z,21.97
2019-02-16T13:57:32.340Z,22.17
2019-02-16T14:00:15.199Z,21.60
2019-02-16T14:03:07.953Z,24.53
2019-02-16T14:05:54.463Z,21.73
2019-02-16T14:08:32.130Z,21.77
2019-02-16T14:11:22.645Z,20.27
2019-02-16T14:14:01.692Z,23.07
2019-02-16T14:16:49.594Z,20.43
2019-02-16T14:19:27.295Z,22.40
2019-02-16T14:21:56.136Z,22.42
2019-02-16T14:24:43.485Z,24.07
2019-02-16T14:27:12.311Z,25.43
2019-02-16T14:29:41.258Z,23.23
2019-02-16T14:32:10.059Z,20.63
2019-02-16T14:34:38.858Z,21.87
2019-02-16T14:37:13.418Z,22.80
2019-02-16T14:39:42.291Z,24.77
2019-02-16T14:42:11.212Z,23.60
2019-02-16T14:44:40.110Z,20.33
2019-02-16T14:47:08.947Z,19.93
2019-02-16T14:49:37.856Z,23.50
2019-02-16T14:52:06.702Z,24.97
2019-02-16T14:54:35.683Z,20.23
2019-02-16T14:57:04.582Z,20.00
2019-02-16T14:59:34.617Z,22.80
2019-02-16T15:02:03.410Z,25.10
2019-02-16T15:04:32.323Z,25.73
2019-02-16T15:07:01.211Z,24.00
2019-02-16T15:09:31.029Z,21.50
2019-02-16T15:11:59.846Z,21.27
2019-02-16T15:14:28.630Z,24.57
2019-02-16T15:16:57.490Z,23.10
2019-02-16T15:19:26.387Z,21.33
2019-02-16T15:21:55.213Z,22.30
2019-02-16T15:24:24.121Z,21.83
2019-02-16T15:26:52.969Z,22.37
2019-02-16T15:29:22.310Z,21.47
2019-02-16T15:31:51.247Z,23.63
2019-02-16T15:34:20.069Z,24.53
2019-02-16T15:36:48.882Z,20.00
2019-02-16T15:39:17.723Z,22.53
2019-02-16T15:41:46.511Z,22.63
2019-02-16T15:44:15.332Z,24.73
2019-02-16T15:46:44.122Z,24.43
2019-02-16T15:49:14.102Z,24.70
2019-02-16T15:51:42.917Z,23.70
2019-02-16T15:54:11.892Z,25.07
2019-02-16T15:56:40.755Z,22.10
2019-02-16T15:59:09.834Z,23.27
2019-02-16T16:01:38.730Z,23.60
2019-02-16T16:04:07.572Z,25.37
2019-02-16T16:06:36.427Z,21.73
2019-02-16T16:12:06.631Z,23.87
2019-02-16T16:15:00.405Z,24.80
2019-02-16T16:17:45.413Z,21.43
2019-02-16T16:20:20.692Z,21.83
2019-02-16T16:22:59.390Z,23.40
2019-02-16T16:25:41.029Z,24.07
2019-02-16T16:28:28.198Z,23.33
2019-02-16T16:31:19.029Z,24.73
2019-02-16T16:34:01.497Z,24.83
2019-02-16T16:36:48.195Z,25.17
2019-02-16T16:39:45.501Z,23.17
2019-02-16T16:42:33.015Z,25.40
2019-02-16T16:45:19.062Z,22.77
2019-02-16T16:48:05.633Z,24.57
2019-02-16T16:50:43.148Z,27.03
2019-02-16T16:53:38.699Z,23.60
2019-02-16T16:56:28.877Z,23.60
2019-02-16T16:59:16.289Z,26.93
2019-02-16T17:01:52.657Z,23.00
2019-02-16T17:04:41.219Z,23.77
2019-02-16T17:07:18.761Z,22.80
2019-02-16T17:10:00.689Z,21.43
2019-02-16T17:12:47.755Z,23.17
2019-02-16T17:15:34.429Z,24.67
2019-02-16T17:18:21.473Z,23.70
2019-02-16T17:21:22.149Z,24.27
2019-02-16T17:24:13.264Z,25.00
2019-02-16T17:26:49.447Z,21.67
2019-02-16T17:29:40.395Z,23.70
2019-02-16T17:32:31.375Z,26.47
2019-02-16T17:35:18.290Z,26.03
2019-02-16T17:37:55.445Z,23.13
2019-02-16T17:40:32.294Z,22.37
2019-02-16T17:43:26.486Z,25.40
2019-02-16T17:46:05.105Z,25.63
2019-02-16T17:48:51.864Z,26.37
2019-02-16T17:51:30.133Z,26.40
2019-02-16T17:54:15.179Z,30.87
2019-02-16T17:56:55.656Z,25.30
2019-02-16T17:59:35.397Z,23.53
2019-02-16T18:02:17.189Z,28.50
2019-02-16T18:05:11.485Z,25.17
2019-02-16T18:07:59.352Z,24.23
2019-02-16T18:10:37.241Z,23.97
2019-02-16T18:13:25.129Z,26.90
2019-02-16T18:16:16.167Z,27.80
2019-02-16T18:18:59.509Z,28.47
2019-02-16T18:21:52.977Z,28.33
2019-02-16T18:24:32.085Z,25.57
2019-02-16T18:27:31.994Z,33.53
2019-02-16T18:30:18.625Z,27.53
2019-02-16T18:32:56.098Z,28.30
2019-02-16T18:35:43.959Z,26.77
2019-02-16T18:38:34.915Z,25.97
2019-02-16T18:41:21.297Z,23.30
2019-02-16T18:44:08.091Z,25.77
2019-02-16T18:46:54.391Z,26.07
2019-02-16T18:49:45.425Z,27.87
2019-02-16T18:52:42.668Z,32.20
2019-02-16T18:55:18.710Z,29.63
2019-02-16T18:58:06.517Z,31.27
2019-02-16T19:00:53.208Z,26.87
2019-02-16T19:03:29.720Z,27.10
2019-02-16T19:06:20.501Z,29.60
2019-02-16T19:09:14.598Z,30.03
2019-02-16T19:12:01.293Z,28.17
2019-02-16T19:14:58.255Z,26.47
2019-02-16T19:17:44.520Z,30.80
2019-02-16T19:20:35.471Z,28.63
2019-02-16T19:23:29.626Z,27.90
2019-02-16T19:26:32.493Z,28.60
2019-02-16T19:29:20.239Z,35.17
2019-02-16T19:32:00.960Z,28.90
2019-02-16T19:34:47.001Z,29.67
2019-02-16T19:37:50.301Z,28.77
2019-02-16T19:40:31.041Z,25.90
2019-02-16T19:43:18.968Z,28.80
2019-02-16T19:46:09.754Z,32.10
2019-02-16T19:48:57.737Z,26.63
2019-02-16T19:51:44.122Z,27.87
2019-02-16T19:54:47.427Z,27.97
2019-02-16T19:57:44.537Z,31.23
2019-02-16T20:00:38.700Z,29.17
2019-02-16T20:03:16.778Z,29.13
2019-02-16T20:06:08.515Z,27.47
2019-02-16T20:08:43.523Z,30.30
2019-02-16T20:11:22.470Z,29.70
2019-02-16T20:13:58.711Z,28.27
2019-02-16T20:16:37.645Z,29.47
2019-02-16T20:19:17.913Z,28.47
2019-02-16T20:21:54.357Z,31.80
2019-02-16T20:24:40.426Z,36.60
2019-02-16T20:27:21.423Z,31.47
2019-02-16T20:30:01.172Z,30.40
2019-02-16T20:32:37.586Z,30.60
2019-02-16T20:35:31.754Z,28.07
2019-02-16T20:38:11.663Z,32.13
2019-02-16T20:41:02.598Z,31.03
2019-02-16T20:43:45.589Z,30.73
2019-02-16T20:46:29.358Z,30.03
2019-02-16T20:49:20.350Z,33.87
2019-02-16T20:52:02.270Z,29.27
2019-02-16T20:54:48.109Z,31.10
2019-02-16T20:57:32.921Z,29.33
2019-02-16T21:00:10.890Z,33.97
2019-02-16T21:02:57.485Z,33.60
2019-02-16T21:05:36.843Z,32.03
2019-02-16T21:08:24.960Z,30.70
2019-02-16T21:11:11.296Z,28.37
2019-02-16T21:13:56.342Z,28.37
2019-02-16T21:16:36.019Z,27.87
2019-02-16T21:19:15.754Z,28.90
2019-02-16T21:21:57.577Z,29.37
2019-02-16T21:24:33.385Z,35.87
2019-02-16T21:27:14.483Z,30.83
2019-02-16T21:30:08.346Z,34.17
2019-02-16T21:32:55.851Z,29.43
2019-02-16T21:35:50.787Z,31.93
2019-02-16T21:38:37.353Z,29.27
2019-02-16T21:41:25.360Z,29.00
2019-02-16T21:44:13.822Z,32.57
2019-02-16T21:47:02.668Z,31.33
2019-02-16T21:49:49.353Z,30.07
2019-02-16T21:52:36.206Z,34.40
2019-02-16T21:55:23.828Z,32.77
2019-02-16T21:58:08.388Z,33.07
2019-02-16T22:00:49.981Z,29.53
2019-02-16T22:03:36.911Z,31.67
2019-02-16T22:06:23.160Z,33.40
2019-02-16T22:08:59.186Z,32.87
2019-02-16T22:11:45.982Z,31.97
2019-02-16T22:14:14.804Z,35.27
2019-02-16T22:16:43.705Z,31.43
2019-02-16T22:19:12.571Z,35.70
2019-02-16T22:21:41.441Z,34.30
2019-02-16T22:24:10.328Z,34.47
2019-02-16T22:26:39.141Z,36.13
2019-02-16T22:29:09.238Z,33.83
2019-02-16T22:31:38.158Z,31.57
2019-02-16T22:34:07.045Z,34.77
2019-02-16T22:36:35.916Z,36.07
2019-02-16T22:39:06.046Z,32.07
2019-02-16T22:41:34.957Z,32.67
2019-02-16T22:44:03.908Z,34.30
2019-02-16T22:46:32.704Z,33.80
2019-02-16T22:49:01.715Z,34.03
2019-02-16T22:51:30.527Z,36.63
2019-02-16T22:53:59.432Z,33.67
2019-02-16T22:56:28.274Z,33.23
2019-02-16T22:58:57.252Z,31.97
2019-02-16T23:01:27.601Z,37.20
2019-02-16T23:03:56.493Z,35.73
2019-02-16T23:06:25.596Z,32.67
2019-02-16T23:08:54.462Z,31.17
2019-02-16T23:11:23.261Z,33.60
2019-02-16T23:13:52.032Z,35.13
2019-02-16T23:16:20.929Z,32.87
2019-02-16T23:18:49.926Z,35.07
2019-02-16T23:21:18.779Z,36.93
2019-02-16T23:23:47.585Z,33.33
2019-02-16T23:26:16.423Z,34.20
2019-02-16T23:28:45.447Z,33.73
2019-02-16T23:31:14.231Z,36.13
2019-02-16T23:33:43.029Z,33.23
2019-02-16T23:36:11.808Z,32.50
2019-02-16T23:38:40.812Z,32.67
2019-02-16T23:41:09.947Z,31.97
2019-02-16T23:43:38.871Z,31.87
2019-02-16T23:46:07.725Z,34.03
2019-02-16T23:48:36.728Z,36.73
2019-02-16T23:51:05.721Z,35.13
2019-02-16T23:53:34.555Z,37.43
2019-02-16T23:56:03.370Z,37.23
2019-02-16T23:58:32.319Z,35.87
